createdAt,value
2018-12-08T00:04:12.645Z,2.93
2018-12-08T00:15:43.648Z,3.00
2018-12-08T00:24:32.830Z,4.37
2018-12-08T00:34:45.990Z,4.13
2018-12-08T00:49:45.167Z,3.33
2018-12-08T01:07:33.405Z,3.03
2018-12-08T01:10:11.132Z,3.70
2018-12-08T01:18:59.398Z,2.87
2018-12-08T01:36:26.059Z,2.67
2018-12-08T01:39:10.225Z,2.43
2018-12-08T01:53:43.853Z,2.23
2018-12-08T01:59:14.994Z,2.83
2018-12-08T02:05:17.152Z,3.50
2018-12-08T02:11:24.947Z,3.40
2018-12-08T02:39:20.561Z,3.45
2018-12-08T02:56:54.499Z,2.67
2018-12-08T02:59:53.430Z,3.03
2018-12-08T03:08:28.272Z,3.40
2018-12-08T03:17:25.942Z,3.60
2018-12-08T03:23:58.212Z,3.17
2018-12-08T03:26:31.207Z,4.00
2018-12-08T03:36:12.179Z,3.20
2018-12-08T04:00:08.024Z,2.57
2018-12-08T04:02:38.714Z,2.87
2018-12-08T04:11:10.880Z,2.50
2018-12-08T04:14:06.768Z,2.97
2018-12-08T04:16:37.387Z,2.53
2018-12-08T04:19:42.110Z,2.90
2018-12-08T04:22:25.147Z,3.90
2018-12-08T04:37:09.605Z,2.90
2018-12-08T04:40:07.800Z,3.13
2018-12-08T05:33:46.244Z,3.50
2018-12-08T05:45:08.966Z,4.30
2018-12-08T06:03:22.200Z,4.83
2018-12-08T06:20:04.433Z,5.10
2018-12-08T06:28:48.875Z,5.80
2018-12-08T06:34:18.791Z,5.60
2018-12-08T07:22:12.830Z,6.28
2018-12-08T07:35:08.741Z,6.13
2018-12-08T07:37:39.825Z,5.50
2018-12-08T08:40:12.434Z,6.67
2018-12-08T08:46:02.452Z,6.13
2018-12-08T08:48:35.993Z,7.20
2018-12-08T09:13:53.433Z,4.40
2018-12-08T09:22:48.168Z,4.63
2018-12-08T09:34:48.995Z,6.07
2018-12-08T09:40:43.086Z,5.10
2018-12-08T09:43:29.652Z,3.63
2018-12-08T09:46:00.017Z,4.83
2018-12-08T09:51:30.261Z,4.37
2018-12-08T09:54:01.273Z,3.90
2018-12-08T10:05:50.657Z,3.70
2018-12-08T10:14:33.415Z,4.10
2018-12-08T10:17:05.342Z,3.50
2018-12-08T10:29:18.757Z,4.10
2018-12-08T10:31:49.940Z,4.50
2018-12-08T10:34:19.987Z,5.27
2018-12-08T10:39:51.333Z,3.83
2018-12-08T10:55:27.027Z,3.90
2018-12-08T11:01:02.608Z,2.50
2018-12-08T11:03:48.850Z,3.83
2018-12-08T11:46:23.373Z,3.17
2018-12-08T11:51:33.019Z,2.75
2018-12-08T11:59:53.211Z,2.57
2018-12-08T12:03:28.351Z,2.70
2018-12-08T12:09:22.135Z,2.50
2018-12-08T12:11:52.886Z,1.93
2018-12-08T12:19:35.561Z,2.33
2018-12-08T12:22:05.203Z,2.80
2018-12-08T12:24:34.357Z,2.47
2018-12-08T12:27:04.146Z,4.00
2018-12-08T12:29:34.704Z,2.63
2018-12-08T12:32:04.418Z,3.80
2018-12-08T12:34:33.621Z,3.50
2018-12-08T12:37:03.007Z,3.13
2018-12-08T12:39:32.367Z,3.23
2018-12-08T12:42:01.483Z,3.30
2018-12-08T12:44:30.718Z,2.93
2018-12-08T12:47:00.265Z,4.70
2018-12-08T12:49:29.469Z,4.40
2018-12-08T12:51:58.563Z,3.43
2018-12-08T12:54:28.637Z,2.90
2018-12-08T12:57:33.299Z,3.57
2018-12-08T13:01:51.498Z,3.53
2018-12-08T13:07:54.044Z,3.13
2018-12-08T13:41:55.603Z,2.50
2018-12-08T13:44:43.670Z,1.87
2018-12-08T13:47:24.912Z,1.93
2018-12-08T13:49:54.621Z,2.37
2018-12-08T13:52:27.169Z,2.43
2018-12-08T13:54:56.489Z,2.90
2018-12-08T13:57:26.527Z,2.40
2018-12-08T14:05:11.619Z,2.00
2018-12-08T14:42:27.840Z,3.40
2018-12-08T14:45:01.081Z,2.73
2018-12-08T14:47:33.597Z,2.90
2018-12-08T14:50:05.660Z,2.50
2018-12-08T14:52:44.074Z,2.10
2018-12-08T14:55:13.660Z,1.83
2018-12-08T14:57:42.894Z,2.30
2018-12-08T15:00:13.973Z,2.50
2018-12-08T15:02:43.992Z,2.67
2018-12-08T15:05:13.731Z,3.50
2018-12-08T15:07:43.022Z,2.80
2018-12-08T15:10:14.996Z,2.90
2018-12-08T15:12:44.172Z,3.13
2018-12-08T15:15:17.359Z,3.30
2018-12-08T15:17:46.749Z,2.50
2018-12-08T15:20:17.404Z,2.27
2018-12-08T15:38:41.661Z,2.43
2018-12-08T15:45:13.375Z,3.10
2018-12-08T15:47:43.563Z,2.83
2018-12-08T15:50:13.034Z,2.87
2018-12-08T15:52:42.074Z,2.97
2018-12-08T15:55:11.823Z,2.90
2018-12-08T15:57:41.067Z,2.97
2018-12-08T16:00:12.245Z,2.20
2018-12-08T16:02:41.528Z,2.93
2018-12-08T16:05:10.985Z,2.20
2018-12-08T16:07:40.173Z,1.90
2018-12-08T16:10:10.411Z,2.00
2018-12-08T16:12:39.680Z,3.20
2018-12-08T16:15:10.241Z,2.93
2018-12-08T16:17:39.414Z,2.40
2018-12-08T16:20:12.393Z,2.37
2018-12-08T16:22:41.630Z,2.30
2018-12-08T16:25:11.038Z,1.80
2018-12-08T16:27:40.303Z,2.73
2018-12-08T16:30:10.220Z,2.57
2018-12-08T16:32:39.309Z,2.40
2018-12-08T16:35:08.755Z,3.03
2018-12-08T16:37:40.100Z,2.13
2018-12-08T16:40:11.514Z,2.60
2018-12-08T16:43:04.432Z,2.67
2018-12-08T16:48:16.891Z,3.30
2018-12-08T16:50:53.439Z,3.43
2018-12-08T16:53:22.630Z,2.40
2018-12-08T16:55:52.862Z,2.70
2018-12-08T16:58:22.947Z,3.23
2018-12-08T17:00:52.152Z,2.73
2018-12-08T17:03:21.372Z,3.63
2018-12-08T17:06:39.379Z,2.57
2018-12-08T17:09:11.361Z,3.67
2018-12-08T17:12:11.251Z,3.40
2018-12-08T17:15:04.573Z,2.40
2018-12-08T17:17:41.498Z,2.50
2018-12-08T17:20:12.997Z,5.00
2018-12-08T17:22:42.836Z,3.10
2018-12-08T17:25:12.070Z,3.20
2018-12-08T17:27:41.802Z,2.60
2018-12-08T17:30:11.182Z,2.63
2018-12-08T17:32:40.608Z,4.07
2018-12-08T17:35:10.490Z,2.50
2018-12-08T17:37:40.337Z,3.30
2018-12-08T17:40:09.950Z,2.43
2018-12-08T17:42:39.288Z,3.27
2018-12-08T17:45:14.148Z,2.63
2018-12-08T17:47:43.721Z,3.60
2018-12-08T17:50:13.090Z,2.40
2018-12-08T17:52:48.703Z,3.10
2018-12-08T17:55:18.644Z,3.00
2018-12-08T17:57:48.426Z,3.03
2018-12-08T18:00:17.776Z,2.77
2018-12-08T18:02:47.213Z,2.97
2018-12-08T18:05:17.070Z,2.00
2018-12-08T18:07:46.412Z,2.73
2018-12-08T18:10:15.902Z,2.70
2018-12-08T18:12:45.286Z,3.53
2018-12-08T18:15:14.606Z,3.00
2018-12-08T18:17:50.314Z,3.93
2018-12-08T18:20:21.166Z,2.67
2018-12-08T18:22:51.037Z,2.87
2018-12-08T18:25:21.244Z,3.27
2018-12-08T18:27:51.610Z,3.00
2018-12-08T18:30:21.016Z,4.17
2018-12-08T18:32:50.168Z,5.27
2018-12-08T18:35:19.550Z,4.07
2018-12-08T18:37:50.558Z,3.73
2018-12-08T18:40:19.944Z,4.30
2018-12-08T18:42:49.317Z,3.40
2018-12-08T18:45:24.871Z,3.67
2018-12-08T18:47:54.211Z,3.93
2018-12-08T18:50:23.440Z,3.53
2018-12-08T18:52:53.596Z,3.03
2018-12-08T18:55:22.781Z,5.43
2018-12-08T18:57:52.025Z,3.47
2018-12-08T19:00:21.360Z,3.37
2018-12-08T19:02:54.369Z,3.67
2018-12-08T19:05:25.178Z,4.20
2018-12-08T19:07:55.921Z,3.77
2018-12-08T19:10:37.936Z,5.37
2018-12-08T19:13:07.948Z,3.63
2018-12-08T19:15:37.203Z,3.00
2018-12-08T19:18:06.746Z,3.53
2018-12-08T19:20:36.760Z,4.17
2018-12-08T19:23:06.148Z,5.27
2018-12-08T19:28:31.700Z,4.10
2018-12-08T19:31:07.169Z,3.33
2018-12-08T19:33:36.725Z,4.47
2018-12-08T19:36:16.480Z,3.80
2018-12-08T19:38:46.524Z,4.00
2018-12-08T19:41:15.660Z,3.67
2018-12-08T19:43:48.766Z,3.07
2018-12-08T19:46:25.426Z,4.50
2018-12-08T19:48:58.951Z,3.87
2018-12-08T19:51:28.404Z,3.33
2018-12-08T19:53:57.767Z,3.20
2018-12-08T19:59:38.805Z,3.15
2018-12-08T20:02:08.575Z,2.50
2018-12-08T20:04:38.114Z,3.10
2018-12-08T20:07:07.732Z,3.70
2018-12-08T20:09:57.208Z,3.23
2018-12-08T20:12:31.020Z,3.40
2018-12-08T20:15:00.674Z,3.13
2018-12-08T20:17:30.895Z,4.03
2018-12-08T20:20:07.616Z,4.30
2018-12-08T20:22:40.583Z,3.50
2018-12-08T20:25:10.112Z,3.27
2018-12-08T20:27:47.826Z,4.00
2018-12-08T20:30:22.051Z,3.20
2018-12-08T20:32:56.219Z,3.53
2018-12-08T20:35:26.029Z,3.37
2018-12-08T20:37:55.485Z,3.23
2018-12-08T20:40:47.177Z,5.27
2018-12-08T20:43:16.888Z,4.40
2018-12-08T20:48:36.005Z,3.47
2018-12-08T20:51:06.342Z,4.30
2018-12-08T20:56:21.580Z,4.27
2018-12-08T20:58:55.381Z,5.00
2018-12-08T21:01:24.895Z,4.70
2018-12-08T21:03:59.927Z,5.10
2018-12-08T21:06:29.375Z,4.63
2018-12-08T21:08:58.675Z,4.23
2018-12-08T21:11:28.943Z,4.07
2018-12-08T21:13:58.190Z,4.70
2018-12-08T21:16:27.981Z,5.83
2018-12-08T21:45:46.687Z,5.75
2018-12-08T21:51:17.221Z,4.95
2018-12-08T21:53:49.521Z,4.00
2018-12-08T21:56:18.708Z,3.50
2018-12-08T21:58:47.888Z,4.40
2018-12-08T22:01:23.195Z,3.90
2018-12-08T22:03:52.848Z,4.20
2018-12-08T22:06:22.660Z,4.03
2018-12-08T22:08:58.494Z,4.07
2018-12-08T22:25:01.756Z,6.27
